Terminal Aerodrome Forecast
Issued by NWS

Home | Current Version | Previous Version | Text Only | Print | Product List | Glossary On
Versions: 1 2 3 4 5 6 7 8 9 10 11 12 13 14 15 16 17
000
FTUS44 KLZK 192323
TAFBPK
TAF
KBPK 192323Z 2000/2024 21008KT P6SM SCT050 SCT250
     FM200300 18008KT P6SM SCT015
     FM200600 16008KT P6SM BKN015
     FM201500 17010G15KT P6SM -DZ OVC015
     FM202000 17010KT P6SM OVC030=

USA.gov is the U.S. government's official web portal to all federal, state and local government web resources and services.